createdAt,value
2017-07-09T00:00:19.717Z,16.77
2017-07-09T00:02:47.287Z,18.03
2017-07-09T00:05:14.817Z,17.20
2017-07-09T00:07:42.731Z,16.10
2017-07-09T00:10:10.272Z,17.20
2017-07-09T00:12:37.796Z,16.43
2017-07-09T00:15:05.364Z,17.30
2017-07-09T00:17:32.891Z,16.93
2017-07-09T00:20:00.566Z,16.40
2017-07-09T00:22:28.487Z,17.77
2017-07-09T00:24:56.048Z,18.10
2017-07-09T00:27:23.590Z,18.57
2017-07-09T00:29:51.174Z,19.97
2017-07-09T00:32:18.745Z,18.93
2017-07-09T00:34:46.276Z,19.37
2017-07-09T00:37:13.814Z,20.30
2017-07-09T00:39:41.382Z,19.90
2017-07-09T00:42:08.943Z,20.80
2017-07-09T00:44:36.460Z,20.37
2017-07-09T00:47:04.394Z,20.73
2017-07-09T00:49:31.932Z,22.43
2017-07-09T00:51:59.464Z,23.10
2017-07-09T00:54:27.017Z,22.60
2017-07-09T00:56:54.557Z,25.90
2017-07-09T00:59:22.510Z,22.50
2017-07-09T01:01:50.040Z,22.77
2017-07-09T01:04:17.570Z,21.53
2017-07-09T01:06:45.122Z,27.70
2017-07-09T01:09:12.652Z,27.50
2017-07-09T01:11:40.229Z,24.23
2017-07-09T01:14:07.767Z,24.07
2017-07-09T01:16:35.315Z,25.30
2017-07-09T01:19:02.856Z,25.30
2017-07-09T01:21:30.412Z,26.23
2017-07-09T01:23:57.946Z,23.20
2017-07-09T01:26:25.507Z,23.77
2017-07-09T01:28:53.055Z,25.00
2017-07-09T01:31:20.577Z,25.17
2017-07-09T01:33:48.123Z,23.97
2017-07-09T01:36:15.637Z,23.17
2017-07-09T01:38:43.182Z,23.30
2017-07-09T01:41:10.701Z,22.90
2017-07-09T01:43:38.252Z,23.90
2017-07-09T01:46:05.778Z,23.50
2017-07-09T01:48:33.307Z,25.03
2017-07-09T01:51:00.843Z,26.20
2017-07-09T01:53:28.365Z,24.90
2017-07-09T01:55:55.908Z,24.57
2017-07-09T01:58:23.436Z,24.40
2017-07-09T02:00:51.000Z,24.23
2017-07-09T02:03:18.531Z,25.93
2017-07-09T02:05:46.049Z,24.97
2017-07-09T02:08:13.601Z,25.53
2017-07-09T02:10:41.136Z,24.27
2017-07-09T02:13:08.691Z,26.30
2017-07-09T02:15:36.224Z,26.30
2017-07-09T02:18:03.780Z,24.70
2017-07-09T02:20:31.317Z,22.80
2017-07-09T02:22:58.852Z,23.20
2017-07-09T02:25:26.413Z,27.40
2017-07-09T02:27:53.930Z,28.20
2017-07-09T02:30:21.482Z,28.53
2017-07-09T02:32:49.026Z,30.00
2017-07-09T02:35:16.573Z,26.03
2017-07-09T02:37:44.097Z,26.80
2017-07-09T02:40:11.650Z,28.20
2017-07-09T02:42:39.188Z,29.77
2017-07-09T02:45:06.719Z,30.30
2017-07-09T02:47:34.268Z,27.20
2017-07-09T02:50:01.799Z,27.43
2017-07-09T02:52:29.343Z,28.80
2017-07-09T02:54:56.883Z,27.00
2017-07-09T02:57:24.437Z,31.70
2017-07-09T02:59:51.977Z,30.13
2017-07-09T03:02:19.941Z,28.67
2017-07-09T03:04:47.859Z,28.20
2017-07-09T03:07:15.385Z,31.10
2017-07-09T03:09:42.945Z,30.33
2017-07-09T03:12:10.472Z,29.87
2017-07-09T03:14:38.008Z,27.60
2017-07-09T03:17:05.545Z,26.47
2017-07-09T03:19:33.106Z,27.30
2017-07-09T03:22:00.654Z,29.03
2017-07-09T03:24:28.207Z,30.20
2017-07-09T03:26:55.731Z,30.27
2017-07-09T03:29:23.290Z,32.40
2017-07-09T03:31:51.265Z,30.60
2017-07-09T03:34:19.188Z,28.80
2017-07-09T03:36:46.730Z,29.90
2017-07-09T03:39:14.273Z,32.40
2017-07-09T03:41:41.817Z,29.40
2017-07-09T03:44:09.361Z,32.20
2017-07-09T03:46:37.303Z,29.90
2017-07-09T03:49:04.854Z,29.60
2017-07-09T03:51:32.376Z,30.90
2017-07-09T03:53:59.940Z,32.17
2017-07-09T03:56:27.464Z,32.13
2017-07-09T03:58:55.399Z,32.30
2017-07-09T04:01:22.947Z,29.17
2017-07-09T04:03:50.502Z,29.07
2017-07-09T04:06:18.041Z,33.00
2017-07-09T04:08:45.607Z,30.90
2017-07-09T04:11:13.173Z,30.90
2017-07-09T04:13:40.719Z,31.27
2017-07-09T04:16:08.294Z,30.37
2017-07-09T04:18:35.851Z,31.50
2017-07-09T04:21:03.404Z,31.27
2017-07-09T04:23:30.937Z,28.90
2017-07-09T04:25:58.488Z,29.27
2017-07-09T04:28:26.026Z,29.60
2017-07-09T04:30:53.984Z,31.27
2017-07-09T04:33:21.909Z,32.63
2017-07-09T04:35:49.445Z,33.20
2017-07-09T04:38:16.999Z,30.57
2017-07-09T04:40:44.533Z,33.37
2017-07-09T04:43:12.463Z,34.20
2017-07-09T04:45:39.988Z,33.97
2017-07-09T04:48:07.541Z,34.70
2017-07-09T04:50:35.089Z,33.40
2017-07-09T04:53:02.630Z,36.47
2017-07-09T04:55:30.557Z,35.50
2017-07-09T04:57:58.102Z,36.97
2017-07-09T05:00:25.649Z,35.93
2017-07-09T05:02:53.190Z,33.63
2017-07-09T05:05:20.736Z,33.60
2017-07-09T05:07:48.655Z,38.80
2017-07-09T05:10:16.216Z,36.80
2017-07-09T05:12:43.745Z,37.27
2017-07-09T05:15:11.302Z,37.80
2017-07-09T05:17:38.830Z,37.60
2017-07-09T05:20:06.352Z,36.23
2017-07-09T05:22:33.912Z,35.77
2017-07-09T05:25:01.453Z,35.73
2017-07-09T05:27:28.999Z,34.73
2017-07-09T05:29:56.528Z,34.80
2017-07-09T05:32:24.082Z,36.23
2017-07-09T05:34:51.996Z,34.37
2017-07-09T05:37:19.559Z,41.17
2017-07-09T05:39:47.106Z,38.10
2017-07-09T05:42:14.631Z,35.63
2017-07-09T05:44:42.569Z,37.10
2017-07-09T05:47:10.104Z,36.90
2017-07-09T05:49:37.658Z,38.73
2017-07-09T05:52:05.184Z,39.13
2017-07-09T05:54:32.740Z,38.13
2017-07-09T05:57:00.271Z,37.90
2017-07-09T05:59:27.820Z,38.57
2017-07-09T06:01:55.349Z,35.80
2017-07-09T06:04:22.881Z,34.90
2017-07-09T06:06:50.448Z,36.00
2017-07-09T06:09:17.990Z,39.23
2017-07-09T06:11:45.533Z,34.63
2017-07-09T06:14:13.076Z,34.73
2017-07-09T06:16:40.684Z,33.90
2017-07-09T06:19:08.207Z,33.80
2017-07-09T06:21:35.752Z,32.67
2017-07-09T06:24:03.345Z,32.50
2017-07-09T06:26:30.885Z,31.20
2017-07-09T06:28:58.441Z,34.07
2017-07-09T06:31:26.370Z,32.90
2017-07-09T06:33:53.938Z,32.50
2017-07-09T06:36:21.471Z,33.50
2017-07-09T06:38:49.013Z,30.60
2017-07-09T06:41:16.578Z,30.87
2017-07-09T06:43:44.105Z,33.10
2017-07-09T06:46:12.067Z,30.10
2017-07-09T06:48:40.001Z,31.93
2017-07-09T06:51:07.546Z,30.77
2017-07-09T06:53:35.072Z,30.67
2017-07-09T06:56:02.616Z,31.33
2017-07-09T06:58:30.155Z,31.70
2017-07-09T07:00:57.676Z,31.30
2017-07-09T07:03:25.255Z,32.70
2017-07-09T07:05:52.805Z,33.80
2017-07-09T07:08:20.345Z,32.50
2017-07-09T07:10:48.267Z,30.73
2017-07-09T07:13:16.228Z,30.17
2017-07-09T07:15:43.761Z,29.20
2017-07-09T07:18:11.371Z,33.27
2017-07-09T07:20:38.892Z,32.93
2017-07-09T07:23:06.419Z,32.90
2017-07-09T07:25:33.967Z,31.23
2017-07-09T07:28:01.508Z,32.10
2017-07-09T07:30:31.731Z,30.67
2017-07-09T07:32:59.265Z,30.70
2017-07-09T07:35:27.224Z,34.63
2017-07-09T07:37:54.756Z,35.37
2017-07-09T07:40:22.338Z,35.50
2017-07-09T07:42:49.871Z,35.67
2017-07-09T07:45:17.427Z,36.87
2017-07-09T07:47:44.968Z,35.33
2017-07-09T07:50:12.504Z,34.33
2017-07-09T07:52:40.081Z,33.27
2017-07-09T07:55:07.626Z,32.27
2017-07-09T07:57:35.168Z,32.80
2017-07-09T08:00:02.695Z,31.03
2017-07-09T08:02:30.237Z,30.63
2017-07-09T08:04:57.762Z,31.20
2017-07-09T08:07:25.287Z,31.57
2017-07-09T08:09:53.223Z,30.53
2017-07-09T08:12:20.753Z,32.10
2017-07-09T08:14:48.300Z,32.60
2017-07-09T08:17:15.833Z,31.80
2017-07-09T08:19:43.411Z,35.80
2017-07-09T08:22:10.945Z,33.77
2017-07-09T08:24:38.887Z,33.57
2017-07-09T08:27:06.417Z,31.67
2017-07-09T08:29:33.939Z,33.40
2017-07-09T08:32:01.497Z,32.90
2017-07-09T08:34:29.012Z,31.57
2017-07-09T08:36:56.552Z,33.57
2017-07-09T08:39:24.073Z,32.57
2017-07-09T08:41:51.653Z,31.43
2017-07-09T08:44:19.197Z,34.07
2017-07-09T08:46:46.742Z,31.60
2017-07-09T08:49:14.684Z,33.47
2017-07-09T08:51:42.270Z,29.50
2017-07-09T08:54:09.781Z,30.30
2017-07-09T08:56:37.342Z,30.53
2017-07-09T08:59:04.936Z,29.10
2017-07-09T09:01:32.525Z,32.50
2017-07-09T09:04:00.158Z,27.97
2017-07-09T09:06:27.711Z,27.97
2017-07-09T09:08:55.652Z,28.50
2017-07-09T09:11:23.175Z,30.30
2017-07-09T09:13:50.867Z,30.63
2017-07-09T09:16:18.403Z,31.53
2017-07-09T09:18:45.952Z,28.60
2017-07-09T09:21:13.636Z,29.30
2017-07-09T09:23:41.159Z,26.77
2017-07-09T09:26:08.868Z,26.70
2017-07-09T09:28:36.399Z,27.53
2017-07-09T09:31:03.944Z,27.10
2017-07-09T09:33:31.484Z,26.97
2017-07-09T09:35:59.435Z,25.70
2017-07-09T09:38:27.376Z,24.50
2017-07-09T09:40:55.328Z,25.17
2017-07-09T09:43:22.866Z,28.30
2017-07-09T09:45:50.401Z,27.90
2017-07-09T09:48:18.349Z,24.43
2017-07-09T09:50:45.882Z,23.50
2017-07-09T09:53:13.444Z,24.83
2017-07-09T09:55:40.965Z,22.40
2017-07-09T09:58:08.506Z,24.50
2017-07-09T10:00:36.473Z,23.90
2017-07-09T10:03:04.508Z,24.50
2017-07-09T10:05:32.450Z,21.60
2017-07-09T10:07:59.965Z,21.90
2017-07-09T10:10:27.910Z,22.47
2017-07-09T10:12:55.424Z,21.73
2017-07-09T10:15:22.969Z,23.03
2017-07-09T10:17:50.516Z,25.10
2017-07-09T10:20:18.051Z,24.57
2017-07-09T10:22:45.983Z,24.70
2017-07-09T10:25:13.505Z,23.70
2017-07-09T10:27:41.067Z,23.47
2017-07-09T10:30:08.595Z,23.87
2017-07-09T10:32:36.552Z,24.37
2017-07-09T10:35:04.085Z,23.93
2017-07-09T10:37:31.609Z,22.57
2017-07-09T10:39:59.165Z,21.87
2017-07-09T10:42:26.692Z,20.57
2017-07-09T10:44:54.252Z,21.00
2017-07-09T10:47:21.779Z,21.77
2017-07-09T10:49:49.325Z,21.23
2017-07-09T10:52:16.849Z,21.40
2017-07-09T10:54:44.413Z,22.57
2017-07-09T10:57:11.948Z,21.87
2017-07-09T10:59:39.477Z,21.67
2017-07-09T11:02:07.032Z,20.90
2017-07-09T11:04:34.551Z,20.47
2017-07-09T11:07:02.097Z,20.90
2017-07-09T11:09:29.620Z,21.70
2017-07-09T11:11:57.162Z,22.87
2017-07-09T11:14:24.685Z,19.50
2017-07-09T11:16:52.233Z,22.10
2017-07-09T11:19:19.775Z,21.40
2017-07-09T11:21:47.318Z,21.27
2017-07-09T11:24:14.864Z,20.30
2017-07-09T11:26:42.405Z,20.77
2017-07-09T11:29:09.946Z,18.90
2017-07-09T11:31:37.480Z,18.17
2017-07-09T11:34:05.021Z,18.53
2017-07-09T11:36:32.940Z,19.93
2017-07-09T11:39:00.509Z,21.23
2017-07-09T11:41:28.035Z,18.90
2017-07-09T11:43:55.548Z,17.93
2017-07-09T11:46:23.112Z,19.07
2017-07-09T11:48:50.644Z,18.13
2017-07-09T11:51:18.181Z,20.43
2017-07-09T11:53:45.711Z,19.27
2017-07-09T11:56:13.248Z,17.13
2017-07-09T11:58:41.170Z,19.00
2017-07-09T12:01:08.715Z,19.77
2017-07-09T12:03:36.227Z,17.60
2017-07-09T12:06:04.157Z,19.80
2017-07-09T12:08:31.704Z,18.53
2017-07-09T12:10:59.226Z,19.57
2017-07-09T12:13:27.159Z,17.93
2017-07-09T12:15:54.692Z,19.77
2017-07-09T12:18:22.223Z,18.20
2017-07-09T12:20:49.753Z,17.20
2017-07-09T12:23:17.347Z,18.57
2017-07-09T12:25:44.865Z,21.07
2017-07-09T12:28:12.388Z,17.57
2017-07-09T12:30:39.935Z,18.20
2017-07-09T12:33:07.469Z,17.07
2017-07-09T12:35:35.029Z,18.83
2017-07-09T12:38:02.561Z,18.53
2017-07-09T12:40:30.506Z,18.00
2017-07-09T12:42:58.040Z,15.13
2017-07-09T12:45:25.585Z,17.50
2017-07-09T12:47:53.121Z,15.70
2017-07-09T12:50:20.662Z,18.60
2017-07-09T12:52:48.600Z,17.50
2017-07-09T12:55:16.121Z,16.30
2017-07-09T12:57:43.673Z,16.20
2017-07-09T13:00:11.204Z,17.67
2017-07-09T13:02:39.143Z,19.63
2017-07-09T13:05:06.664Z,16.97
2017-07-09T13:07:34.238Z,14.50
2017-07-09T13:10:01.765Z,14.57
2017-07-09T13:12:29.309Z,14.27
2017-07-09T13:14:57.246Z,15.00
2017-07-09T13:17:24.769Z,14.87
2017-07-09T13:19:52.304Z,15.00
2017-07-09T13:22:19.862Z,16.03
2017-07-09T13:24:47.411Z,14.10
2017-07-09T13:27:15.317Z,15.23
2017-07-09T13:29:42.849Z,14.20
2017-07-09T13:32:10.389Z,14.80
2017-07-09T13:34:38.336Z,15.67
2017-07-09T13:37:05.872Z,14.80
2017-07-09T13:39:33.517Z,14.53
2017-07-09T13:42:01.098Z,14.60
2017-07-09T13:44:28.640Z,13.80
2017-07-09T13:46:56.198Z,13.47
2017-07-09T13:49:23.737Z,13.30
2017-07-09T13:51:51.393Z,14.80
2017-07-09T13:54:18.929Z,14.10
2017-07-09T13:56:46.909Z,14.07
2017-07-09T13:59:14.434Z,14.27
2017-07-09T14:01:41.991Z,13.57
2017-07-09T14:04:09.520Z,15.50
2017-07-09T14:06:37.120Z,15.70
2017-07-09T14:09:04.633Z,13.77
2017-07-09T14:11:32.172Z,13.40
2017-07-09T14:13:59.724Z,14.00
2017-07-09T14:16:27.269Z,13.23
2017-07-09T14:18:54.849Z,14.60
2017-07-09T14:21:22.372Z,15.13
2017-07-09T14:23:49.909Z,13.53
2017-07-09T14:26:17.508Z,14.33
2017-07-09T14:28:45.069Z,14.80
2017-07-09T14:31:12.600Z,14.20
2017-07-09T14:33:40.150Z,14.60
2017-07-09T14:36:07.683Z,13.10
2017-07-09T14:38:35.231Z,14.13
2017-07-09T14:41:02.800Z,13.47
2017-07-09T14:43:30.368Z,14.50
2017-07-09T14:45:57.926Z,13.80
2017-07-09T14:48:25.462Z,15.50
2017-07-09T14:50:53.003Z,13.77
2017-07-09T14:53:20.532Z,13.33
2017-07-09T14:55:48.093Z,13.27
2017-07-09T14:58:16.011Z,12.50
2017-07-09T15:00:43.579Z,13.17
2017-07-09T15:03:11.103Z,13.60
2017-07-09T15:05:38.657Z,12.77
2017-07-09T15:08:06.201Z,13.30
2017-07-09T15:10:34.108Z,14.30
2017-07-09T15:13:01.640Z,12.80
2017-07-09T15:15:29.169Z,12.33
2017-07-09T15:17:56.705Z,12.90
2017-07-09T15:20:26.414Z,11.97
2017-07-09T15:22:53.963Z,12.90
2017-07-09T15:25:21.541Z,11.70
2017-07-09T15:27:49.065Z,13.77
2017-07-09T15:30:16.652Z,11.60
2017-07-09T15:32:44.245Z,12.00
2017-07-09T15:35:12.155Z,11.20
2017-07-09T15:37:39.788Z,11.30
2017-07-09T15:40:07.417Z,10.87
2017-07-09T15:42:35.068Z,11.70
2017-07-09T15:45:02.684Z,11.90
2017-07-09T15:47:30.247Z,11.10
2017-07-09T15:49:57.867Z,11.47
2017-07-09T15:52:27.646Z,12.80
2017-07-09T15:54:55.201Z,12.00
2017-07-09T15:57:22.730Z,11.70
2017-07-09T15:59:50.420Z,11.77
2017-07-09T16:02:17.995Z,10.27
2017-07-09T16:04:45.721Z,13.80
2017-07-09T16:07:13.432Z,12.10
2017-07-09T16:09:41.496Z,12.40
2017-07-09T16:12:09.524Z,11.40
2017-07-09T16:14:37.200Z,10.60
2017-07-09T16:17:04.771Z,10.67
2017-07-09T16:19:32.358Z,10.57
2017-07-09T16:22:00.003Z,10.97
2017-07-09T16:24:27.550Z,10.83
2017-07-09T16:26:55.563Z,11.93
2017-07-09T16:29:23.208Z,10.73
2017-07-09T16:31:51.667Z,10.80
2017-07-09T16:34:19.279Z,10.17
2017-07-09T16:36:47.168Z,8.97
2017-07-09T16:39:14.817Z,9.40
2017-07-09T16:41:42.435Z,10.07
2017-07-09T16:44:10.387Z,9.33
2017-07-09T16:46:37.970Z,10.20
2017-07-09T16:49:05.928Z,9.03
2017-07-09T16:51:33.963Z,9.87
2017-07-09T16:54:01.572Z,9.93
2017-07-09T16:56:29.273Z,9.23
2017-07-09T16:58:56.913Z,9.07
2017-07-09T17:01:24.521Z,9.37
2017-07-09T17:03:52.542Z,8.70
2017-07-09T17:06:20.538Z,8.90
2017-07-09T17:08:48.120Z,8.70
2017-07-09T17:11:15.767Z,8.57
2017-07-09T17:13:43.395Z,9.07
2017-07-09T17:16:11.005Z,8.80
2017-07-09T17:18:39.450Z,8.50
2017-07-09T17:21:07.170Z,9.27
2017-07-09T17:23:34.780Z,9.70
2017-07-09T17:26:02.466Z,8.67
2017-07-09T17:28:30.028Z,10.23
2017-07-09T17:30:57.973Z,11.30
2017-07-09T17:33:25.544Z,10.67
2017-07-09T17:35:53.090Z,10.03
2017-07-09T17:38:20.649Z,10.60
2017-07-09T17:40:48.179Z,10.87
2017-07-09T17:43:15.731Z,11.07
2017-07-09T17:45:43.251Z,10.73
2017-07-09T17:48:11.247Z,11.20
2017-07-09T17:50:38.760Z,11.47
2017-07-09T17:53:06.284Z,14.70
2017-07-09T17:55:33.819Z,13.90
2017-07-09T17:58:01.474Z,11.73
2017-07-09T18:00:29.023Z,12.13
2017-07-09T18:02:56.668Z,11.40
2017-07-09T18:05:24.763Z,11.57
2017-07-09T18:07:52.297Z,11.33
2017-07-09T18:10:20.382Z,13.20
2017-07-09T18:12:47.928Z,12.37
2017-07-09T18:15:15.880Z,13.37
2017-07-09T18:17:43.561Z,12.10
2017-07-09T18:20:11.173Z,12.93
2017-07-09T18:22:38.799Z,11.70
2017-07-09T18:25:06.438Z,11.83
2017-07-09T18:27:33.986Z,12.00
2017-07-09T18:30:01.948Z,11.93
2017-07-09T18:32:29.693Z,12.70
2017-07-09T18:34:57.240Z,13.63
2017-07-09T18:37:24.945Z,13.10
2017-07-09T18:39:52.620Z,13.50
2017-07-09T18:42:20.746Z,12.90
2017-07-09T18:44:48.306Z,13.03
2017-07-09T18:47:16.024Z,14.43
2017-07-09T18:49:43.561Z,13.10
2017-07-09T18:52:11.517Z,12.90
2017-07-09T18:54:39.702Z,14.13
2017-07-09T18:57:07.483Z,14.40
2017-07-09T18:59:35.033Z,15.40
2017-07-09T19:02:02.963Z,13.33
2017-07-09T19:04:30.505Z,14.00
2017-07-09T19:06:58.072Z,13.90
2017-07-09T19:09:25.616Z,14.90
2017-07-09T19:11:53.295Z,13.50
2017-07-09T19:14:20.849Z,13.17
2017-07-09T19:16:48.397Z,12.83
2017-07-09T19:19:15.947Z,12.63
2017-07-09T19:21:43.493Z,13.83
2017-07-09T19:24:11.030Z,12.80
2017-07-09T19:26:39.610Z,12.80
2017-07-09T19:29:07.841Z,13.00
2017-07-09T19:31:35.496Z,14.70
2017-07-09T19:34:03.040Z,14.20
2017-07-09T19:36:30.561Z,13.23
2017-07-09T19:38:58.084Z,14.17
2017-07-09T19:41:25.629Z,13.17
2017-07-09T19:43:53.152Z,12.87
2017-07-09T19:46:20.710Z,12.80
2017-07-09T19:48:48.244Z,11.93
2017-07-09T19:51:16.204Z,12.10
2017-07-09T19:53:43.742Z,11.80
2017-07-09T19:56:11.285Z,11.70
2017-07-09T19:58:38.813Z,10.80
2017-07-09T20:01:06.356Z,10.83
2017-07-09T20:03:33.899Z,10.97
2017-07-09T20:06:04.163Z,11.70
2017-07-09T20:08:35.656Z,10.93
2017-07-09T20:11:03.194Z,12.30
2017-07-09T20:13:30.819Z,12.03
2017-07-09T20:15:58.414Z,11.90
2017-07-09T20:18:25.984Z,11.70
2017-07-09T20:20:53.554Z,11.73
2017-07-09T20:23:21.123Z,11.63
2017-07-09T20:25:50.638Z,11.50
2017-07-09T20:28:18.598Z,11.53
2017-07-09T20:30:46.164Z,12.03
2017-07-09T20:33:14.102Z,12.90
2017-07-09T20:35:41.660Z,12.20
2017-07-09T20:38:09.221Z,12.73
2017-07-09T20:40:36.785Z,11.73
2017-07-09T20:43:04.304Z,13.37
2017-07-09T20:45:31.840Z,12.80
2017-07-09T20:47:59.420Z,11.90
2017-07-09T20:50:27.108Z,11.00
2017-07-09T20:52:54.641Z,12.00
2017-07-09T20:55:22.173Z,11.90
2017-07-09T20:57:49.711Z,12.50
2017-07-09T21:00:17.654Z,12.53
2017-07-09T21:02:45.202Z,12.00
2017-07-09T21:05:12.858Z,11.77
2017-07-09T21:07:40.401Z,12.30
2017-07-09T21:10:07.937Z,11.27
2017-07-09T21:12:35.502Z,12.67
2017-07-09T21:15:03.035Z,13.23
2017-07-09T21:17:30.960Z,12.67
2017-07-09T21:19:58.517Z,12.10
2017-07-09T21:22:26.046Z,12.93
2017-07-09T21:24:53.582Z,13.07
2017-07-09T21:27:21.132Z,12.53
2017-07-09T21:29:48.839Z,13.03
2017-07-09T21:32:16.377Z,13.20
2017-07-09T21:34:43.936Z,12.90
2017-07-09T21:37:11.566Z,13.10
2017-07-09T21:39:39.156Z,12.77
2017-07-09T21:42:06.694Z,13.30
2017-07-09T21:44:34.252Z,13.43
2017-07-09T21:47:02.239Z,13.50
2017-07-09T21:49:29.800Z,12.87
2017-07-09T21:51:57.339Z,13.30
2017-07-09T21:54:25.255Z,12.13
2017-07-09T21:56:52.820Z,12.93
2017-07-09T21:59:20.360Z,12.30
2017-07-09T22:01:47.888Z,12.63
2017-07-09T22:04:15.435Z,13.17
2017-07-09T22:06:43.413Z,12.80
2017-07-09T22:09:10.950Z,13.40
2017-07-09T22:11:38.496Z,13.77
2017-07-09T22:14:06.129Z,13.30
2017-07-09T22:16:33.661Z,12.80
2017-07-09T22:19:01.210Z,13.30
2017-07-09T22:21:28.754Z,14.20
2017-07-09T22:23:56.286Z,13.37
2017-07-09T22:26:23.839Z,13.37
2017-07-09T22:28:51.372Z,12.80
2017-07-09T22:31:18.941Z,13.40
2017-07-09T22:33:46.455Z,13.57
2017-07-09T22:36:14.026Z,12.90
2017-07-09T22:38:41.556Z,13.20
2017-07-09T22:41:09.532Z,13.27
2017-07-09T22:43:37.453Z,12.83
2017-07-09T22:46:04.997Z,12.70
2017-07-09T22:48:32.551Z,13.40
2017-07-09T22:51:00.105Z,13.03
2017-07-09T22:53:27.653Z,12.47
2017-07-09T22:55:55.179Z,13.03
2017-07-09T22:58:23.146Z,14.20
2017-07-09T23:00:51.081Z,14.03
2017-07-09T23:03:18.635Z,19.03
2017-07-09T23:05:46.163Z,21.60
2017-07-09T23:08:13.749Z,21.07
2017-07-09T23:10:41.285Z,20.47
2017-07-09T23:13:08.809Z,21.87
2017-07-09T23:15:36.738Z,27.10
2017-07-09T23:18:04.261Z,27.17
2017-07-09T23:20:31.806Z,27.90
2017-07-09T23:22:59.336Z,31.27
2017-07-09T23:25:26.891Z,30.90
2017-07-09T23:27:54.416Z,27.40
2017-07-09T23:30:21.993Z,30.60
2017-07-09T23:32:49.529Z,29.33
2017-07-09T23:35:17.088Z,30.27
2017-07-09T23:37:44.611Z,30.37
2017-07-09T23:40:12.560Z,30.47
2017-07-09T23:42:40.494Z,32.57
2017-07-09T23:45:08.129Z,30.83
2017-07-09T23:47:35.669Z,37.97
2017-07-09T23:50:03.196Z,46.77
2017-07-09T23:52:30.766Z,41.50
2017-07-09T23:54:58.705Z,45.73
2017-07-09T23:57:26.263Z,46.03
2017-07-09T23:59:53.805Z,51.80
